SYG186 EDDS-LESU
Flight info
| Callsign | SYG186 |
|---|---|
| Flight time | 1h 44m |
| Altitude | 31000 |
| Route | ROTWE5B ROTWE Y126 TUBLO N850 NATOR DCT LUTIX DCT BENOT/N0453F370 DCT NEMOS DCT GEVEA DCT INCUS DCT BALSI DCT RETNO DCT TUPOX DCT MTG DCT DIVKO DCT NILDU N975 BGR/N0366F230 L110 LATRO |
| Aircraft | B38M/M-SDFGHIRWY/H |
Departure
| Time | 2026-05-06 08:39 |
|---|---|
| Airport | Stuttgart Airport (EDDS) |
Arrival
| Time | 2026-05-06 10:23 |
|---|---|
| Airport | Pirineus - la Seu d'Urgel Airport (LESU) |
| Time | Latitude | Longitude | Altitude | Speed | Heading |
|---|---|---|---|---|---|
| 2026-05-06 08:15 | 48.69053 | 9.20714 | 1282 ft | 0 kts | 344° |
| 2026-05-06 08:30 | 48.69035 | 9.20721 | 1284 ft | 4 kts | 347° |
| 2026-05-06 08:30 | 48.69008 | 9.20728 | 1285 ft | 4 kts | 356° |
| 2026-05-06 08:30 | 48.68982 | 9.20726 | 1282 ft | 4 kts | 17° |
| 2026-05-06 08:30 | 48.68966 | 9.20713 | 1283 ft | 3 kts | 42° |
| 2026-05-06 08:31 | 48.68975 | 9.20746 | 1282 ft | 4 kts | 81° |
| 2026-05-06 08:31 | 48.68980 | 9.20781 | 1279 ft | 1 kts | 74° |
| 2026-05-06 08:34 | 48.68983 | 9.20794 | 1278 ft | 4 kts | 73° |
| 2026-05-06 08:34 | 48.69041 | 9.21092 | 1271 ft | 24 kts | 73° |
| 2026-05-06 08:34 | 48.69090 | 9.21357 | 1265 ft | 28 kts | 74° |
| 2026-05-06 08:35 | 48.69148 | 9.21659 | 1258 ft | 31 kts | 75° |
| 2026-05-06 08:35 | 48.69211 | 9.21990 | 1258 ft | 35 kts | 74° |
| 2026-05-06 08:35 | 48.69269 | 9.22294 | 1248 ft | 26 kts | 74° |
| 2026-05-06 08:35 | 48.69321 | 9.22579 | 1237 ft | 30 kts | 75° |
| 2026-05-06 08:36 | 48.69382 | 9.22897 | 1230 ft | 33 kts | 73° |
| 2026-05-06 08:36 | 48.69447 | 9.23239 | 1229 ft | 34 kts | 74° |
| 2026-05-06 08:36 | 48.69509 | 9.23567 | 1254 ft | 30 kts | 74° |
| 2026-05-06 08:36 | 48.69560 | 9.23832 | 1268 ft | 23 kts | 73° |
| 2026-05-06 08:37 | 48.69602 | 9.24048 | 1275 ft | 21 kts | 73° |
| 2026-05-06 08:37 | 48.69587 | 9.24224 | 1268 ft | 12 kts | 118° |
| 2026-05-06 08:37 | 48.69545 | 9.24296 | 1254 ft | 9 kts | 150° |
| 2026-05-06 08:37 | 48.69499 | 9.24318 | 1243 ft | 10 kts | 164° |
| 2026-05-06 08:38 | 48.69420 | 9.24344 | 1193 ft | 10 kts | 177° |
| 2026-05-06 08:38 | 48.69386 | 9.24309 | 1193 ft | 6 kts | 244° |
| 2026-05-06 08:38 | 48.69345 | 9.24080 | 1198 ft | 54 kts | 254° |
| 2026-05-06 08:38 | 48.69179 | 9.23207 | 1215 ft | 117 kts | 254° |
| 2026-05-06 08:39 | 48.68913 | 9.21813 | 1257 ft | 166 kts | 254° |
| 2026-05-06 08:39 | 48.68602 | 9.20047 | 1691 ft | 176 kts | 254° |
| 2026-05-06 08:39 | 48.68271 | 9.18233 | 2357 ft | 181 kts | 254° |
| 2026-05-06 08:39 | 48.67905 | 9.16383 | 2856 ft | 191 kts | 253° |
| 2026-05-06 08:40 | 48.67514 | 9.14349 | 3120 ft | 215 kts | 254° |
| 2026-05-06 08:40 | 48.67098 | 9.12061 | 3487 ft | 236 kts | 254° |
| 2026-05-06 08:40 | 48.66644 | 9.09625 | 4180 ft | 240 kts | 254° |
| 2026-05-06 08:40 | 48.66172 | 9.07135 | 4709 ft | 255 kts | 254° |
| 2026-05-06 08:41 | 48.65665 | 9.04493 | 5254 ft | 264 kts | 253° |
| 2026-05-06 08:41 | 48.65317 | 9.02697 | 5842 ft | 263 kts | 253° |
| 2026-05-06 08:41 | 48.64804 | 9.00061 | 6535 ft | 267 kts | 253° |
| 2026-05-06 08:41 | 48.64276 | 8.97358 | 7251 ft | 269 kts | 252° |
| 2026-05-06 08:42 | 48.63708 | 8.94651 | 7972 ft | 271 kts | 245° |
| 2026-05-06 08:42 | 48.62666 | 8.92299 | 8685 ft | 271 kts | 224° |
| 2026-05-06 08:42 | 48.61204 | 8.90493 | 9395 ft | 273 kts | 218° |
| 2026-05-06 08:42 | 48.59720 | 8.88682 | 10054 ft | 277 kts | 218° |
| 2026-05-06 08:43 | 48.58175 | 8.86776 | 10334 ft | 295 kts | 218° |
| 2026-05-06 08:43 | 48.56559 | 8.84767 | 10647 ft | 309 kts | 218° |
| 2026-05-06 08:43 | 48.54875 | 8.82671 | 11159 ft | 315 kts | 218° |
| 2026-05-06 08:43 | 48.53180 | 8.80564 | 11851 ft | 318 kts | 218° |
| 2026-05-06 08:44 | 48.51465 | 8.78432 | 12548 ft | 321 kts | 218° |
| 2026-05-06 08:44 | 48.49730 | 8.76278 | 13271 ft | 324 kts | 218° |
| 2026-05-06 08:44 | 48.48005 | 8.74133 | 13939 ft | 327 kts | 219° |
| 2026-05-06 08:44 | 48.46299 | 8.71819 | 14576 ft | 331 kts | 220° |
| 2026-05-06 08:45 | 48.44581 | 8.69475 | 15243 ft | 335 kts | 220° |
| 2026-05-06 08:45 | 48.42842 | 8.67105 | 15884 ft | 339 kts | 221° |
| 2026-05-06 08:45 | 48.41085 | 8.64711 | 16525 ft | 343 kts | 221° |
| 2026-05-06 08:45 | 48.39305 | 8.62289 | 17144 ft | 347 kts | 221° |
| 2026-05-06 08:46 | 48.37508 | 8.59845 | 17758 ft | 351 kts | 221° |
| 2026-05-06 08:46 | 48.35686 | 8.57370 | 18329 ft | 354 kts | 221° |
| 2026-05-06 08:46 | 48.33849 | 8.54878 | 18888 ft | 356 kts | 221° |
| 2026-05-06 08:46 | 48.32010 | 8.52385 | 19466 ft | 358 kts | 220° |
| 2026-05-06 08:47 | 48.30152 | 8.49869 | 20007 ft | 360 kts | 220° |
| 2026-05-06 08:47 | 48.28290 | 8.47349 | 20548 ft | 362 kts | 220° |
| 2026-05-06 08:47 | 48.26418 | 8.44819 | 21085 ft | 364 kts | 220° |
| 2026-05-06 08:47 | 48.24532 | 8.42272 | 21626 ft | 365 kts | 219° |
| 2026-05-06 08:48 | 48.22632 | 8.39710 | 22161 ft | 367 kts | 219° |
| 2026-05-06 08:48 | 48.20750 | 8.37174 | 22675 ft | 370 kts | 219° |
| 2026-05-06 08:48 | 48.18832 | 8.34591 | 23206 ft | 372 kts | 219° |
| 2026-05-06 08:48 | 48.16875 | 8.32042 | 23677 ft | 372 kts | 214° |
| 2026-05-06 08:49 | 48.14726 | 8.29860 | 24113 ft | 373 kts | 212° |
| 2026-05-06 08:49 | 48.12582 | 8.27639 | 24528 ft | 376 kts | 212° |
| 2026-05-06 08:49 | 48.10423 | 8.25380 | 24906 ft | 380 kts | 213° |
| 2026-05-06 08:49 | 48.08258 | 8.23098 | 25368 ft | 381 kts | 213° |
| 2026-05-06 08:50 | 48.06087 | 8.20806 | 25820 ft | 383 kts | 213° |
| 2026-05-06 08:50 | 48.03905 | 8.18502 | 26237 ft | 385 kts | 213° |
| 2026-05-06 08:50 | 48.01709 | 8.16185 | 26679 ft | 386 kts | 213° |
| 2026-05-06 08:50 | 47.99517 | 8.13875 | 27116 ft | 388 kts | 213° |
| 2026-05-06 08:51 | 47.97307 | 8.11548 | 27499 ft | 390 kts | 213° |
| 2026-05-06 08:51 | 47.95115 | 8.09242 | 27881 ft | 391 kts | 213° |
| 2026-05-06 08:51 | 47.92885 | 8.06898 | 28311 ft | 393 kts | 213° |
| 2026-05-06 08:51 | 47.90644 | 8.04547 | 28738 ft | 393 kts | 213° |
| 2026-05-06 08:52 | 47.88398 | 8.02192 | 29125 ft | 395 kts | 213° |
| 2026-05-06 08:52 | 47.86142 | 7.99828 | 29514 ft | 397 kts | 213° |
| 2026-05-06 08:52 | 47.83879 | 7.97461 | 29899 ft | 398 kts | 213° |
| 2026-05-06 08:52 | 47.81613 | 7.95093 | 30197 ft | 400 kts | 213° |
| 2026-05-06 08:53 | 47.79336 | 7.92716 | 30512 ft | 401 kts | 213° |
| 2026-05-06 08:53 | 47.77048 | 7.90330 | 30785 ft | 403 kts | 213° |
| 2026-05-06 08:53 | 47.74755 | 7.87940 | 31085 ft | 404 kts | 213° |
| 2026-05-06 08:53 | 47.72447 | 7.85539 | 31434 ft | 403 kts | 213° |
| 2026-05-06 08:54 | 47.70148 | 7.83150 | 31781 ft | 404 kts | 213° |
| 2026-05-06 08:54 | 47.67843 | 7.80756 | 32102 ft | 404 kts | 213° |
| 2026-05-06 08:54 | 47.65576 | 7.78405 | 32489 ft | 403 kts | 213° |
| 2026-05-06 08:54 | 47.63284 | 7.76030 | 32882 ft | 401 kts | 213° |
| 2026-05-06 08:55 | 47.60973 | 7.73639 | 33276 ft | 400 kts | 214° |
| 2026-05-06 08:55 | 47.58723 | 7.71313 | 33659 ft | 398 kts | 214° |
| 2026-05-06 08:55 | 47.56449 | 7.68965 | 34010 ft | 397 kts | 214° |
| 2026-05-06 08:55 | 47.54184 | 7.66628 | 34258 ft | 397 kts | 214° |
| 2026-05-06 08:56 | 47.51912 | 7.64287 | 34531 ft | 397 kts | 214° |
| 2026-05-06 08:56 | 47.49638 | 7.61947 | 34772 ft | 399 kts | 214° |
| 2026-05-06 08:56 | 47.47352 | 7.59596 | 35020 ft | 400 kts | 214° |
| 2026-05-06 08:56 | 47.45065 | 7.57247 | 35255 ft | 401 kts | 214° |
| 2026-05-06 08:57 | 47.42769 | 7.54891 | 35485 ft | 401 kts | 214° |
| 2026-05-06 08:57 | 47.40472 | 7.52537 | 35702 ft | 402 kts | 214° |
| 2026-05-06 08:57 | 47.38202 | 7.50213 | 35887 ft | 403 kts | 214° |
| 2026-05-06 08:57 | 47.35863 | 7.47823 | 36069 ft | 405 kts | 214° |
| 2026-05-06 08:58 | 47.33560 | 7.45469 | 36173 ft | 408 kts | 214° |
| 2026-05-06 08:58 | 47.31224 | 7.43085 | 36410 ft | 408 kts | 214° |
| 2026-05-06 08:58 | 47.28885 | 7.40701 | 36561 ft | 409 kts | 214° |
| 2026-05-06 08:58 | 47.26546 | 7.38319 | 36754 ft | 410 kts | 214° |
| 2026-05-06 08:59 | 47.24198 | 7.35932 | 36836 ft | 411 kts | 214° |
| 2026-05-06 08:59 | 47.19498 | 7.31159 | 36822 ft | 409 kts | 214° |
| 2026-05-06 09:00 | 47.14809 | 7.26408 | 36831 ft | 410 kts | 214° |
| 2026-05-06 09:00 | 47.10111 | 7.21655 | 36838 ft | 410 kts | 214° |
| 2026-05-06 09:01 | 47.05395 | 7.16945 | 36842 ft | 410 kts | 212° |
| 2026-05-06 09:01 | 47.00650 | 7.12397 | 36850 ft | 410 kts | 213° |
| 2026-05-06 09:02 | 46.95884 | 7.07817 | 36841 ft | 410 kts | 213° |
| 2026-05-06 09:02 | 46.91103 | 7.03232 | 36852 ft | 412 kts | 213° |
| 2026-05-06 09:03 | 46.86304 | 6.98639 | 36859 ft | 412 kts | 213° |
| 2026-05-06 09:03 | 46.81513 | 6.94063 | 36854 ft | 412 kts | 213° |
| 2026-05-06 09:04 | 46.76686 | 6.89465 | 36862 ft | 416 kts | 213° |
| 2026-05-06 09:04 | 46.71841 | 6.84857 | 36852 ft | 415 kts | 213° |
| 2026-05-06 09:05 | 46.67000 | 6.80264 | 36858 ft | 415 kts | 213° |
| 2026-05-06 09:05 | 46.62156 | 6.75678 | 36852 ft | 415 kts | 213° |
| 2026-05-06 09:06 | 46.57313 | 6.71103 | 36858 ft | 415 kts | 213° |
| 2026-05-06 09:06 | 46.52497 | 6.66563 | 36865 ft | 415 kts | 213° |
| 2026-05-06 09:07 | 46.47645 | 6.62000 | 36856 ft | 415 kts | 213° |
| 2026-05-06 09:07 | 46.42799 | 6.57452 | 36866 ft | 415 kts | 213° |
| 2026-05-06 09:08 | 46.37944 | 6.52904 | 36880 ft | 415 kts | 213° |
| 2026-05-06 09:08 | 46.33119 | 6.48395 | 36878 ft | 412 kts | 213° |
| 2026-05-06 09:09 | 46.28335 | 6.43933 | 36880 ft | 412 kts | 213° |
| 2026-05-06 09:09 | 46.23516 | 6.39449 | 36883 ft | 412 kts | 213° |
| 2026-05-06 09:10 | 46.18669 | 6.34948 | 36884 ft | 415 kts | 213° |
| 2026-05-06 09:10 | 46.13805 | 6.30441 | 36869 ft | 414 kts | 213° |
| 2026-05-06 09:11 | 46.08956 | 6.25956 | 36886 ft | 415 kts | 213° |
| 2026-05-06 09:11 | 46.04089 | 6.21466 | 36911 ft | 415 kts | 213° |
| 2026-05-06 09:12 | 45.99228 | 6.16989 | 36897 ft | 414 kts | 213° |
| 2026-05-06 09:12 | 45.94386 | 6.12539 | 36911 ft | 412 kts | 213° |
| 2026-05-06 09:13 | 45.89578 | 6.08128 | 36910 ft | 412 kts | 213° |
| 2026-05-06 09:13 | 45.84492 | 6.04441 | 36888 ft | 412 kts | 193° |
| 2026-05-06 09:14 | 45.78838 | 6.02808 | 36917 ft | 414 kts | 197° |
| 2026-05-06 09:14 | 45.73246 | 6.00748 | 36904 ft | 415 kts | 196° |
| 2026-05-06 09:15 | 45.67651 | 5.98751 | 36928 ft | 415 kts | 196° |
| 2026-05-06 09:15 | 45.62075 | 5.96777 | 36910 ft | 414 kts | 196° |
| 2026-05-06 09:16 | 45.56437 | 5.94785 | 36886 ft | 415 kts | 196° |
| 2026-05-06 09:16 | 45.50883 | 5.92827 | 36905 ft | 414 kts | 196° |
| 2026-05-06 09:17 | 45.45274 | 5.90854 | 36921 ft | 415 kts | 196° |
| 2026-05-06 09:17 | 45.39634 | 5.88874 | 36919 ft | 414 kts | 196° |
| 2026-05-06 09:18 | 45.34056 | 5.86920 | 36928 ft | 413 kts | 196° |
| 2026-05-06 09:18 | 45.28506 | 5.84980 | 36911 ft | 413 kts | 196° |
| 2026-05-06 09:19 | 45.22917 | 5.83029 | 36895 ft | 413 kts | 196° |
| 2026-05-06 09:19 | 45.17346 | 5.81090 | 36914 ft | 412 kts | 196° |
| 2026-05-06 09:20 | 45.11761 | 5.79149 | 36883 ft | 412 kts | 196° |
| 2026-05-06 09:20 | 45.06186 | 5.77215 | 36908 ft | 413 kts | 196° |
| 2026-05-06 09:21 | 45.00643 | 5.75297 | 36888 ft | 412 kts | 197° |
| 2026-05-06 09:21 | 44.95078 | 5.73374 | 36913 ft | 412 kts | 196° |
| 2026-05-06 09:22 | 44.89503 | 5.71453 | 36927 ft | 414 kts | 196° |
| 2026-05-06 09:22 | 44.83906 | 5.69527 | 36868 ft | 413 kts | 197° |
| 2026-05-06 09:23 | 44.78314 | 5.67607 | 36889 ft | 414 kts | 197° |
| 2026-05-06 09:23 | 44.72725 | 5.65692 | 36903 ft | 413 kts | 197° |
| 2026-05-06 09:24 | 44.67132 | 5.63779 | 36894 ft | 413 kts | 197° |
| 2026-05-06 09:24 | 44.61543 | 5.61872 | 36910 ft | 413 kts | 197° |
| 2026-05-06 09:25 | 44.55959 | 5.59970 | 36920 ft | 413 kts | 197° |
| 2026-05-06 09:25 | 44.50363 | 5.58067 | 36909 ft | 413 kts | 197° |
| 2026-05-06 09:26 | 44.44780 | 5.56172 | 36922 ft | 413 kts | 197° |
| 2026-05-06 09:26 | 44.40119 | 5.54594 | 36915 ft | 414 kts | 197° |
| 2026-05-06 09:27 | 44.34520 | 5.52701 | 36900 ft | 414 kts | 197° |
| 2026-05-06 09:27 | 44.28924 | 5.50813 | 36914 ft | 414 kts | 197° |
| 2026-05-06 09:28 | 44.23329 | 5.48929 | 36902 ft | 413 kts | 197° |
| 2026-05-06 09:28 | 44.17734 | 5.47049 | 36926 ft | 414 kts | 197° |
| 2026-05-06 09:29 | 44.12161 | 5.45179 | 36923 ft | 413 kts | 197° |
| 2026-05-06 09:29 | 44.06577 | 5.43309 | 36916 ft | 412 kts | 197° |
| 2026-05-06 09:30 | 44.01019 | 5.41452 | 36922 ft | 411 kts | 197° |
| 2026-05-06 09:30 | 43.95565 | 5.39187 | 36932 ft | 407 kts | 204° |
| 2026-05-06 09:31 | 43.90279 | 5.36348 | 36895 ft | 407 kts | 204° |
| 2026-05-06 09:31 | 43.85012 | 5.33506 | 36918 ft | 406 kts | 204° |
| 2026-05-06 09:32 | 43.79729 | 5.30658 | 36927 ft | 408 kts | 204° |
| 2026-05-06 09:32 | 43.74463 | 5.27824 | 36929 ft | 409 kts | 204° |
| 2026-05-06 09:33 | 43.69163 | 5.24978 | 36914 ft | 408 kts | 204° |
| 2026-05-06 09:33 | 43.63863 | 5.22137 | 36935 ft | 408 kts | 204° |
| 2026-05-06 09:34 | 43.58558 | 5.19298 | 36939 ft | 408 kts | 204° |
| 2026-05-06 09:34 | 43.53289 | 5.16485 | 36939 ft | 408 kts | 204° |
| 2026-05-06 09:35 | 43.47988 | 5.13659 | 36930 ft | 408 kts | 204° |
| 2026-05-06 09:35 | 43.42682 | 5.10836 | 36938 ft | 408 kts | 204° |
| 2026-05-06 09:36 | 43.37552 | 5.07610 | 36934 ft | 402 kts | 217° |
| 2026-05-06 09:36 | 43.32918 | 5.03266 | 36927 ft | 403 kts | 216° |
| 2026-05-06 09:37 | 43.28292 | 4.98932 | 36926 ft | 402 kts | 216° |
| 2026-05-06 09:37 | 43.23678 | 4.94596 | 36957 ft | 402 kts | 217° |
| 2026-05-06 09:38 | 43.19044 | 4.90247 | 36937 ft | 404 kts | 217° |
| 2026-05-06 09:38 | 43.14432 | 4.85927 | 36939 ft | 404 kts | 217° |
| 2026-05-06 09:39 | 43.09789 | 4.81587 | 36934 ft | 402 kts | 217° |
| 2026-05-06 09:39 | 43.05227 | 4.77184 | 36932 ft | 400 kts | 223° |
| 2026-05-06 09:40 | 43.01051 | 4.72152 | 36939 ft | 400 kts | 223° |
| 2026-05-06 09:40 | 42.94824 | 4.64634 | 36947 ft | 400 kts | 223° |
| 2026-05-06 09:41 | 42.90659 | 4.59612 | 36944 ft | 399 kts | 223° |
| 2026-05-06 09:41 | 42.86494 | 4.54599 | 36954 ft | 400 kts | 223° |
| 2026-05-06 09:42 | 42.82302 | 4.49563 | 36953 ft | 401 kts | 223° |
| 2026-05-06 09:42 | 42.78141 | 4.44573 | 36952 ft | 401 kts | 223° |
| 2026-05-06 09:43 | 42.73950 | 4.39557 | 36955 ft | 401 kts | 223° |
| 2026-05-06 09:43 | 42.69760 | 4.34552 | 36955 ft | 401 kts | 223° |
| 2026-05-06 09:44 | 42.65570 | 4.29557 | 36961 ft | 401 kts | 223° |
| 2026-05-06 09:44 | 42.61368 | 4.24556 | 36966 ft | 401 kts | 223° |
| 2026-05-06 09:45 | 42.57169 | 4.19567 | 36963 ft | 401 kts | 223° |
| 2026-05-06 09:45 | 42.52947 | 4.14563 | 36945 ft | 403 kts | 223° |
| 2026-05-06 09:46 | 42.48739 | 4.09581 | 36964 ft | 401 kts | 223° |
| 2026-05-06 09:46 | 42.44570 | 4.04656 | 36631 ft | 390 kts | 223° |
| 2026-05-06 09:47 | 42.42566 | 4.02292 | 36410 ft | 385 kts | 223° |
| 2026-05-06 09:47 | 42.40553 | 3.99919 | 36180 ft | 381 kts | 223° |
| 2026-05-06 09:47 | 42.38561 | 3.97574 | 35968 ft | 378 kts | 223° |
| 2026-05-06 09:47 | 42.36595 | 3.95261 | 35620 ft | 372 kts | 223° |
| 2026-05-06 09:48 | 42.34645 | 3.92969 | 35064 ft | 371 kts | 223° |
| 2026-05-06 09:48 | 42.32702 | 3.90685 | 34482 ft | 370 kts | 223° |
| 2026-05-06 09:48 | 42.30765 | 3.88412 | 34012 ft | 367 kts | 223° |
| 2026-05-06 09:48 | 42.28844 | 3.86158 | 33469 ft | 364 kts | 223° |
| 2026-05-06 09:49 | 42.26937 | 3.83923 | 32947 ft | 361 kts | 223° |
| 2026-05-06 09:49 | 42.25045 | 3.81710 | 32430 ft | 358 kts | 223° |
| 2026-05-06 09:49 | 42.23169 | 3.79516 | 31993 ft | 355 kts | 224° |
| 2026-05-06 09:49 | 42.21313 | 3.77347 | 31543 ft | 351 kts | 224° |
| 2026-05-06 09:50 | 42.19474 | 3.75200 | 31084 ft | 348 kts | 224° |
| 2026-05-06 09:50 | 42.17648 | 3.73069 | 30646 ft | 345 kts | 224° |
| 2026-05-06 09:50 | 42.15841 | 3.70963 | 30189 ft | 342 kts | 224° |
| 2026-05-06 09:50 | 42.14052 | 3.68878 | 29708 ft | 339 kts | 224° |
| 2026-05-06 09:51 | 42.12272 | 3.66806 | 29225 ft | 335 kts | 224° |
| 2026-05-06 09:51 | 42.10519 | 3.64767 | 28807 ft | 331 kts | 224° |
| 2026-05-06 09:51 | 42.08910 | 3.62646 | 28360 ft | 325 kts | 235° |
| 2026-05-06 09:51 | 42.07878 | 3.59964 | 27951 ft | 320 kts | 245° |
| 2026-05-06 09:52 | 42.06951 | 3.57273 | 27631 ft | 314 kts | 244° |
| 2026-05-06 09:52 | 42.06042 | 3.54619 | 27275 ft | 310 kts | 244° |
| 2026-05-06 09:52 | 42.05153 | 3.51990 | 26924 ft | 306 kts | 244° |
| 2026-05-06 09:52 | 42.04284 | 3.49397 | 26579 ft | 302 kts | 244° |
| 2026-05-06 09:53 | 42.03429 | 3.46835 | 26242 ft | 298 kts | 244° |
| 2026-05-06 09:53 | 42.03103 | 3.45854 | 26110 ft | 297 kts | 244° |
| 2026-05-06 09:53 | 42.02929 | 3.45334 | 26042 ft | 296 kts | 244° |
| 2026-05-06 09:54 | 42.02102 | 3.42848 | 25718 ft | 293 kts | 244° |
| 2026-05-06 09:54 | 42.01276 | 3.40366 | 25399 ft | 289 kts | 244° |
| 2026-05-06 09:54 | 42.01201 | 3.40141 | 25368 ft | 289 kts | 244° |
| 2026-05-06 09:55 | 42.00421 | 3.37798 | 25059 ft | 286 kts | 244° |
| 2026-05-06 09:55 | 41.99612 | 3.35373 | 24743 ft | 282 kts | 244° |
| 2026-05-06 09:55 | 41.98813 | 3.32978 | 24431 ft | 279 kts | 244° |
| 2026-05-06 09:55 | 41.98021 | 3.30606 | 24114 ft | 278 kts | 244° |
| 2026-05-06 09:56 | 41.97217 | 3.28198 | 23815 ft | 289 kts | 244° |
| 2026-05-06 09:56 | 41.96371 | 3.25668 | 23463 ft | 304 kts | 245° |
| 2026-05-06 09:56 | 41.95491 | 3.23039 | 23091 ft | 311 kts | 245° |
| 2026-05-06 09:56 | 41.94847 | 3.20245 | 23003 ft | 317 kts | 260° |
| 2026-05-06 09:57 | 41.94702 | 3.17294 | 22958 ft | 323 kts | 262° |
| 2026-05-06 09:57 | 41.94563 | 3.14274 | 22973 ft | 325 kts | 263° |
| 2026-05-06 09:57 | 41.94435 | 3.11237 | 22922 ft | 326 kts | 263° |
| 2026-05-06 09:57 | 41.94315 | 3.08190 | 22963 ft | 328 kts | 263° |
| 2026-05-06 09:58 | 41.94198 | 3.05125 | 22980 ft | 328 kts | 263° |
| 2026-05-06 09:58 | 41.94082 | 3.02065 | 22974 ft | 327 kts | 263° |
| 2026-05-06 09:58 | 41.93967 | 2.99007 | 22964 ft | 327 kts | 263° |
| 2026-05-06 09:58 | 41.93851 | 2.95958 | 22963 ft | 327 kts | 263° |
| 2026-05-06 09:59 | 41.93736 | 2.92903 | 22960 ft | 327 kts | 263° |
| 2026-05-06 09:59 | 41.93619 | 2.89853 | 22963 ft | 327 kts | 263° |
| 2026-05-06 09:59 | 41.93501 | 2.86809 | 22957 ft | 327 kts | 263° |
| 2026-05-06 09:59 | 41.93382 | 2.83752 | 22960 ft | 327 kts | 263° |
| 2026-05-06 10:00 | 41.93263 | 2.80701 | 22960 ft | 327 kts | 263° |
| 2026-05-06 10:00 | 41.93136 | 2.77655 | 22962 ft | 326 kts | 261° |
| 2026-05-06 10:00 | 41.92737 | 2.74681 | 22970 ft | 324 kts | 256° |
| 2026-05-06 10:00 | 41.92319 | 2.71698 | 22788 ft | 324 kts | 257° |
| 2026-05-06 10:01 | 41.91917 | 2.68736 | 22540 ft | 323 kts | 257° |
| 2026-05-06 10:01 | 41.91520 | 2.65763 | 22339 ft | 322 kts | 257° |
| 2026-05-06 10:01 | 41.91132 | 2.62833 | 22111 ft | 322 kts | 257° |
| 2026-05-06 10:01 | 41.90742 | 2.59878 | 21893 ft | 322 kts | 257° |
| 2026-05-06 10:02 | 41.90350 | 2.56917 | 21650 ft | 322 kts | 258° |
| 2026-05-06 10:02 | 41.89959 | 2.53953 | 21428 ft | 322 kts | 258° |
| 2026-05-06 10:02 | 41.89568 | 2.50998 | 21203 ft | 321 kts | 258° |
| 2026-05-06 10:02 | 41.89176 | 2.48045 | 20964 ft | 321 kts | 258° |
| 2026-05-06 10:03 | 41.88783 | 2.45089 | 20745 ft | 322 kts | 258° |
| 2026-05-06 10:03 | 41.88389 | 2.42133 | 20524 ft | 321 kts | 258° |
| 2026-05-06 10:03 | 41.87996 | 2.39183 | 20300 ft | 321 kts | 258° |
| 2026-05-06 10:03 | 41.87601 | 2.36232 | 20080 ft | 321 kts | 258° |
| 2026-05-06 10:04 | 41.87205 | 2.33275 | 19853 ft | 321 kts | 258° |
| 2026-05-06 10:04 | 41.86809 | 2.30327 | 19632 ft | 321 kts | 258° |
| 2026-05-06 10:04 | 41.86418 | 2.27419 | 19423 ft | 322 kts | 258° |
| 2026-05-06 10:04 | 41.86018 | 2.24456 | 19205 ft | 323 kts | 258° |
| 2026-05-06 10:05 | 41.85617 | 2.21484 | 18976 ft | 324 kts | 258° |
| 2026-05-06 10:05 | 41.85213 | 2.18505 | 18758 ft | 324 kts | 258° |
| 2026-05-06 10:05 | 41.84810 | 2.15527 | 18539 ft | 324 kts | 258° |
| 2026-05-06 10:05 | 41.84406 | 2.12552 | 18314 ft | 324 kts | 259° |
| 2026-05-06 10:06 | 41.84001 | 2.09577 | 18100 ft | 324 kts | 259° |
| 2026-05-06 10:06 | 41.83590 | 2.06610 | 17832 ft | 324 kts | 258° |
| 2026-05-06 10:06 | 41.83169 | 2.03650 | 17578 ft | 323 kts | 258° |
| 2026-05-06 10:06 | 41.82749 | 2.00689 | 17326 ft | 322 kts | 258° |
| 2026-05-06 10:07 | 41.82330 | 1.97744 | 17078 ft | 321 kts | 258° |
| 2026-05-06 10:07 | 41.81911 | 1.94801 | 16798 ft | 321 kts | 259° |
| 2026-05-06 10:07 | 41.81498 | 1.91902 | 16402 ft | 320 kts | 259° |
| 2026-05-06 10:07 | 41.81080 | 1.88974 | 16047 ft | 319 kts | 259° |
| 2026-05-06 10:08 | 41.80662 | 1.86057 | 15691 ft | 318 kts | 259° |
| 2026-05-06 10:08 | 41.80247 | 1.83163 | 15383 ft | 315 kts | 259° |
| 2026-05-06 10:08 | 41.79833 | 1.80280 | 15053 ft | 314 kts | 259° |
| 2026-05-06 10:08 | 41.79420 | 1.77411 | 14683 ft | 313 kts | 259° |
| 2026-05-06 10:09 | 41.79004 | 1.74524 | 14100 ft | 318 kts | 259° |
| 2026-05-06 10:09 | 41.78580 | 1.71593 | 13532 ft | 322 kts | 259° |
| 2026-05-06 10:09 | 41.78154 | 1.68650 | 13100 ft | 320 kts | 259° |
| 2026-05-06 10:09 | 41.77731 | 1.65738 | 12740 ft | 316 kts | 259° |
| 2026-05-06 10:10 | 41.77455 | 1.62855 | 12335 ft | 310 kts | 272° |
| 2026-05-06 10:10 | 41.77978 | 1.60119 | 11954 ft | 307 kts | 295° |
| 2026-05-06 10:10 | 41.79006 | 1.57643 | 11672 ft | 301 kts | 297° |
| 2026-05-06 10:10 | 41.80023 | 1.55219 | 11325 ft | 296 kts | 297° |
| 2026-05-06 10:11 | 41.81024 | 1.52857 | 11011 ft | 286 kts | 297° |
| 2026-05-06 10:11 | 41.81998 | 1.50569 | 10595 ft | 279 kts | 298° |
| 2026-05-06 10:11 | 41.82959 | 1.48315 | 10044 ft | 279 kts | 298° |
| 2026-05-06 10:11 | 41.83919 | 1.46067 | 9503 ft | 277 kts | 298° |
| 2026-05-06 10:12 | 41.84870 | 1.43839 | 9002 ft | 274 kts | 298° |
| 2026-05-06 10:12 | 41.85819 | 1.41617 | 8692 ft | 272 kts | 298° |
| 2026-05-06 10:12 | 41.86741 | 1.39453 | 8596 ft | 262 kts | 298° |
| 2026-05-06 10:12 | 41.87629 | 1.37369 | 8498 ft | 252 kts | 298° |
| 2026-05-06 10:13 | 41.88484 | 1.35362 | 8418 ft | 243 kts | 298° |
| 2026-05-06 10:13 | 41.89306 | 1.33432 | 8251 ft | 235 kts | 298° |
| 2026-05-06 10:13 | 41.90112 | 1.31537 | 8077 ft | 233 kts | 298° |
| 2026-05-06 10:13 | 41.90914 | 1.29651 | 8054 ft | 229 kts | 298° |
| 2026-05-06 10:14 | 41.91696 | 1.27811 | 8051 ft | 226 kts | 298° |
| 2026-05-06 10:14 | 41.92475 | 1.25984 | 8051 ft | 225 kts | 300° |
| 2026-05-06 10:14 | 41.93552 | 1.24484 | 7996 ft | 223 kts | 328° |
| 2026-05-06 10:14 | 41.94997 | 1.23931 | 8043 ft | 215 kts | 354° |
| 2026-05-06 10:15 | 41.96476 | 1.23963 | 8018 ft | 215 kts | 358° |
| 2026-05-06 10:15 | 41.97976 | 1.24046 | 7793 ft | 216 kts | 358° |
| 2026-05-06 10:15 | 41.99478 | 1.24142 | 7577 ft | 215 kts | 0° |
| 2026-05-06 10:15 | 42.00969 | 1.24253 | 7387 ft | 213 kts | 1° |
| 2026-05-06 10:16 | 42.01938 | 1.24328 | 7325 ft | 210 kts | 359° |
| 2026-05-06 10:16 | 42.03375 | 1.24452 | 7386 ft | 202 kts | 1° |
| 2026-05-06 10:16 | 42.04736 | 1.24567 | 7367 ft | 192 kts | 359° |
| 2026-05-06 10:16 | 42.06048 | 1.24680 | 7301 ft | 187 kts | 1° |
| 2026-05-06 10:17 | 42.07350 | 1.24795 | 7258 ft | 187 kts | 359° |
| 2026-05-06 10:17 | 42.08642 | 1.25050 | 7277 ft | 191 kts | 15° |
| 2026-05-06 10:17 | 42.09870 | 1.25747 | 7334 ft | 192 kts | 21° |
| 2026-05-06 10:17 | 42.11087 | 1.26492 | 7423 ft | 193 kts | 21° |
| 2026-05-06 10:18 | 42.12308 | 1.27224 | 7422 ft | 192 kts | 20° |
| 2026-05-06 10:18 | 42.13527 | 1.27969 | 7515 ft | 193 kts | 20° |
| 2026-05-06 10:18 | 42.14745 | 1.28728 | 7430 ft | 191 kts | 20° |
| 2026-05-06 10:18 | 42.15949 | 1.29475 | 7368 ft | 192 kts | 21° |
| 2026-05-06 10:19 | 42.17160 | 1.30222 | 7097 ft | 190 kts | 20° |
| 2026-05-06 10:19 | 42.18316 | 1.30940 | 6922 ft | 173 kts | 21° |
| 2026-05-06 10:19 | 42.19362 | 1.31591 | 6912 ft | 161 kts | 22° |
| 2026-05-06 10:19 | 42.20381 | 1.32223 | 7073 ft | 162 kts | 23° |
| 2026-05-06 10:20 | 42.21408 | 1.32863 | 6845 ft | 162 kts | 22° |
| 2026-05-06 10:20 | 42.22432 | 1.33502 | 6432 ft | 162 kts | 23° |
| 2026-05-06 10:20 | 42.23447 | 1.34133 | 6004 ft | 161 kts | 23° |
| 2026-05-06 10:20 | 42.24461 | 1.34763 | 5545 ft | 159 kts | 23° |
| 2026-05-06 10:21 | 42.25455 | 1.35381 | 5141 ft | 156 kts | 24° |
| 2026-05-06 10:21 | 42.26439 | 1.35987 | 4767 ft | 155 kts | 22° |
| 2026-05-06 10:21 | 42.27421 | 1.36571 | 4473 ft | 153 kts | 21° |
| 2026-05-06 10:21 | 42.28420 | 1.37035 | 4211 ft | 151 kts | 15° |
| 2026-05-06 10:22 | 42.29438 | 1.37403 | 3838 ft | 152 kts | 13° |
| 2026-05-06 10:22 | 42.30419 | 1.37900 | 3564 ft | 150 kts | 31° |
| 2026-05-06 10:22 | 42.31265 | 1.38765 | 3308 ft | 153 kts | 38° |
| 2026-05-06 10:22 | 42.32163 | 1.39530 | 3088 ft | 153 kts | 28° |
| 2026-05-06 10:23 | 42.33067 | 1.40208 | 2819 ft | 147 kts | 32° |
| 2026-05-06 10:23 | 42.33913 | 1.40909 | 2643 ft | 117 kts | 31° |
| 2026-05-06 10:23 | 42.34340 | 1.41253 | 2643 ft | 58 kts | 30° |
| 2026-05-06 10:23 | 42.34569 | 1.41441 | 2642 ft | 20 kts | 29° |
| 2026-05-06 10:24 | 42.34595 | 1.41505 | 2642 ft | 6 kts | 108° |
| 2026-05-06 10:24 | 42.34559 | 1.41536 | 2642 ft | 7 kts | 189° |
| 2026-05-06 10:24 | 42.34527 | 1.41495 | 2642 ft | 4 kts | 240° |
| 2026-05-06 10:24 | 42.34523 | 1.41486 | 2642 ft | 0 kts | 242° |
| 2026-05-06 10:26 | 42.34519 | 1.41476 | 2642 ft | 4 kts | 241° |
| 2026-05-06 10:27 | 42.34479 | 1.41392 | 2643 ft | 17 kts | 232° |
| 2026-05-06 10:27 | 42.34364 | 1.41275 | 2643 ft | 24 kts | 210° |
| 2026-05-06 10:27 | 42.34198 | 1.41142 | 2643 ft | 31 kts | 211° |
| 2026-05-06 10:27 | 42.34004 | 1.40987 | 2643 ft | 33 kts | 210° |
| 2026-05-06 10:28 | 42.33860 | 1.40864 | 2643 ft | 15 kts | 214° |
| 2026-05-06 10:28 | 42.33789 | 1.40756 | 2643 ft | 16 kts | 235° |
| 2026-05-06 10:28 | 42.33739 | 1.40656 | 2643 ft | 7 kts | 236° |
| 2026-05-06 10:28 | 42.33731 | 1.40598 | 2643 ft | 7 kts | 296° |
| 2026-05-06 10:29 | 42.33749 | 1.40540 | 2643 ft | 6 kts | 302° |
| 2026-05-06 10:29 | 42.33772 | 1.40489 | 2643 ft | 6 kts | 299° |
| 2026-05-06 10:29 | 42.33774 | 1.40454 | 2643 ft | 3 kts | 265° |
| 2026-05-06 10:29 | 42.33772 | 1.40435 | 2643 ft | 2 kts | 262° |
| 2026-05-06 10:30 | 42.33770 | 1.40415 | 2643 ft | 1 kts | 262° |
| 2026-05-06 10:30 | 42.33769 | 1.40407 | 2643 ft | 0 kts | 262° |